createdAt,value
2017-05-05T00:01:02.937Z,100669
2017-05-05T00:03:32.191Z,100664
2017-05-05T00:06:01.474Z,100664
2017-05-05T00:08:30.895Z,100663
2017-05-05T00:11:00.168Z,100659
2017-05-05T00:13:30.203Z,100660
2017-05-05T00:15:59.448Z,100655
2017-05-05T00:18:29.433Z,100655
2017-05-05T00:20:58.656Z,100662
2017-05-05T00:23:28.006Z,100657
2017-05-05T00:25:57.958Z,100655
2017-05-05T00:28:28.208Z,100651
2017-05-05T00:30:58.245Z,100654
2017-05-05T00:33:27.267Z,100648
2017-05-05T00:35:56.550Z,100655
2017-05-05T00:38:27.268Z,100653
2017-05-05T00:40:57.356Z,100650
2017-05-05T00:43:26.570Z,100652
2017-05-05T00:45:56.668Z,100649
2017-05-05T00:48:26.584Z,100655
2017-05-05T00:50:55.953Z,100644
2017-05-05T00:53:25.322Z,100648
2017-05-05T00:55:54.601Z,100648
2017-05-05T00:58:23.840Z,100655
2017-05-05T01:00:53.132Z,100646
2017-05-05T01:03:22.372Z,100648
2017-05-05T01:05:52.388Z,100642
2017-05-05T01:08:22.405Z,100646
2017-05-05T01:10:51.683Z,100649
2017-05-05T01:13:21.687Z,100649
2017-05-05T01:15:50.907Z,100653
2017-05-05T01:18:20.204Z,100646
2017-05-05T01:20:50.272Z,100646
2017-05-05T01:23:20.338Z,100641
2017-05-05T01:25:50.375Z,100649
2017-05-05T01:28:19.628Z,100646
2017-05-05T01:30:48.860Z,100644
2017-05-05T01:33:18.124Z,100646
2017-05-05T01:35:48.166Z,100639
2017-05-05T01:38:18.218Z,100639
2017-05-05T01:40:48.928Z,100654
2017-05-05T01:43:18.184Z,100651
2017-05-05T01:45:47.457Z,100650
2017-05-05T01:48:17.456Z,100652
2017-05-05T01:50:47.466Z,100651
2017-05-05T01:53:18.339Z,100638
2017-05-05T01:55:47.595Z,100653
2017-05-05T01:58:16.944Z,100653
2017-05-05T02:00:46.186Z,100657
2017-05-05T02:03:15.548Z,100652
2017-05-05T02:05:46.280Z,100651
2017-05-05T02:08:15.557Z,100655
2017-05-05T02:10:44.765Z,100657
2017-05-05T02:13:14.039Z,100659
2017-05-05T02:15:43.280Z,100657
2017-05-05T02:18:15.512Z,100658
2017-05-05T02:20:45.491Z,100654
2017-05-05T02:23:15.499Z,100656
2017-05-05T02:25:45.522Z,100656
2017-05-05T02:28:15.556Z,100657
2017-05-05T02:30:44.792Z,100652
2017-05-05T02:33:14.044Z,100654
2017-05-05T02:35:43.337Z,100662
2017-05-05T02:38:12.575Z,100658
2017-05-05T02:40:42.044Z,100650
2017-05-05T02:43:11.267Z,100654
2017-05-05T02:45:40.539Z,100652
2017-05-05T02:48:10.554Z,100650
2017-05-05T02:50:40.585Z,100642
2017-05-05T02:53:09.829Z,100642
2017-05-05T02:55:39.208Z,100648
2017-05-05T02:58:09.288Z,100645
2017-05-05T03:00:38.565Z,100651
2017-05-05T03:03:08.635Z,100647
2017-05-05T03:05:38.683Z,100655
2017-05-05T03:08:08.026Z,100651
2017-05-05T03:10:38.792Z,100649
2017-05-05T03:13:08.023Z,100648
2017-05-05T03:15:38.083Z,100649
2017-05-05T03:18:07.342Z,100653
2017-05-05T03:20:37.326Z,100658
2017-05-05T03:23:06.568Z,100655
2017-05-05T03:25:36.539Z,100658
2017-05-05T03:28:05.984Z,100671
2017-05-05T03:30:36.007Z,100672
2017-05-05T03:33:06.151Z,100671
2017-05-05T03:35:35.373Z,100669
2017-05-05T03:38:04.685Z,100669
2017-05-05T03:40:33.924Z,100667
2017-05-05T03:43:03.194Z,100677
2017-05-05T03:45:33.856Z,100676
2017-05-05T03:48:03.103Z,100679
2017-05-05T03:50:33.092Z,100678
2017-05-05T03:53:02.328Z,100677
2017-05-05T03:55:31.579Z,100666
2017-05-05T03:58:01.196Z,100672
2017-05-05T04:00:31.238Z,100674
2017-05-05T04:03:00.472Z,100670
2017-05-05T04:05:30.530Z,100675
2017-05-05T04:07:59.759Z,100656
2017-05-05T04:10:29.145Z,100656
2017-05-05T04:12:59.061Z,100668
2017-05-05T04:15:28.356Z,100660
2017-05-05T04:17:57.587Z,100664
2017-05-05T04:20:27.619Z,100661
2017-05-05T04:22:57.636Z,100665
2017-05-05T04:25:27.667Z,100676
2017-05-05T04:27:56.980Z,100679
2017-05-05T04:30:27.669Z,100673
2017-05-05T04:32:57.980Z,100677
2017-05-05T04:35:27.212Z,100674
2017-05-05T04:37:57.125Z,100675
2017-05-05T04:40:27.221Z,100677
2017-05-05T04:42:57.247Z,100671
2017-05-05T04:45:27.242Z,100675
2017-05-05T04:47:56.605Z,100674
2017-05-05T04:50:26.503Z,100685
2017-05-05T04:52:55.760Z,100677
2017-05-05T04:55:25.091Z,100684
2017-05-05T04:57:54.336Z,100676
2017-05-05T05:00:23.576Z,100681
2017-05-05T05:02:53.621Z,100683
2017-05-05T05:05:22.863Z,100691
2017-05-05T05:07:52.134Z,100695
2017-05-05T05:10:21.377Z,100701
2017-05-05T05:12:50.794Z,100691
2017-05-05T05:15:20.050Z,100700
2017-05-05T05:17:49.266Z,100701
2017-05-05T05:20:19.191Z,100704
2017-05-05T05:22:49.304Z,100705
2017-05-05T05:25:19.329Z,100707
2017-05-05T05:27:49.394Z,100703
2017-05-05T05:30:18.624Z,100718
2017-05-05T05:32:47.891Z,100715
2017-05-05T05:35:17.135Z,100730
2017-05-05T05:37:47.367Z,100735
2017-05-05T05:40:17.393Z,100729
2017-05-05T05:42:46.678Z,100735
2017-05-05T05:45:16.730Z,100731
2017-05-05T05:47:46.176Z,100736
2017-05-05T05:50:15.445Z,100736
2017-05-05T05:52:44.707Z,100744
2017-05-05T05:55:13.956Z,100738
2017-05-05T05:57:43.226Z,100735
2017-05-05T06:00:13.259Z,100730
2017-05-05T06:02:42.512Z,100735
2017-05-05T06:05:11.800Z,100745
2017-05-05T06:07:41.933Z,100742
2017-05-05T06:10:11.192Z,100740
2017-05-05T06:12:40.408Z,100739
2017-05-05T06:15:10.430Z,100742
2017-05-05T06:17:40.412Z,100752
2017-05-05T06:20:09.830Z,100748
2017-05-05T06:22:39.215Z,100744
2017-05-05T06:25:09.225Z,100746
2017-05-05T06:27:39.222Z,100748
2017-05-05T06:30:08.476Z,100751
2017-05-05T06:32:38.468Z,100752
2017-05-05T06:35:08.704Z,100752
2017-05-05T06:37:37.942Z,100749
2017-05-05T06:40:07.209Z,100756
2017-05-05T06:42:37.228Z,100758
2017-05-05T06:45:06.607Z,100758
2017-05-05T06:47:35.868Z,100757
2017-05-05T06:50:05.775Z,100764
2017-05-05T06:52:35.075Z,100762
2017-05-05T06:55:05.221Z,100771
2017-05-05T06:57:34.658Z,100767
2017-05-05T07:00:04.820Z,100774
2017-05-05T07:02:34.074Z,100771
2017-05-05T07:05:04.112Z,100778
2017-05-05T07:07:33.380Z,100777
2017-05-05T07:10:03.529Z,100779
2017-05-05T07:12:32.792Z,100774
2017-05-05T07:15:02.793Z,100773
2017-05-05T07:17:32.096Z,100770
2017-05-05T07:20:01.600Z,100777
2017-05-05T07:22:30.839Z,100771
2017-05-05T07:25:00.872Z,100768
2017-05-05T07:27:30.367Z,100773
2017-05-05T07:29:59.636Z,100774
2017-05-05T07:32:29.637Z,100773
2017-05-05T07:34:58.912Z,100780
2017-05-05T07:37:28.885Z,100773
2017-05-05T07:39:58.224Z,100774
2017-05-05T07:42:28.429Z,100773
2017-05-05T07:44:58.574Z,100771
2017-05-05T07:47:28.668Z,100777
2017-05-05T07:49:59.383Z,100775
2017-05-05T07:52:29.419Z,100777
2017-05-05T07:54:59.404Z,100776
2017-05-05T07:57:28.980Z,100776
2017-05-05T07:59:58.289Z,100779
2017-05-05T08:02:28.328Z,100778
2017-05-05T08:04:58.388Z,100782
2017-05-05T08:07:28.485Z,100777
2017-05-05T08:09:57.795Z,100786
2017-05-05T08:12:27.121Z,100790
2017-05-05T08:14:56.386Z,100782
2017-05-05T08:17:25.625Z,100788
2017-05-05T08:19:55.633Z,100787
2017-05-05T08:22:25.648Z,100790
2017-05-05T08:24:54.899Z,100788
2017-05-05T08:27:24.941Z,100787
2017-05-05T08:29:54.183Z,100783
2017-05-05T08:32:24.222Z,100781
2017-05-05T08:34:54.211Z,100788
2017-05-05T08:37:23.482Z,100781
2017-05-05T08:39:52.789Z,100789
2017-05-05T08:42:22.010Z,100776
2017-05-05T08:44:52.002Z,100784
2017-05-05T08:47:21.332Z,100779
2017-05-05T08:49:51.382Z,100782
2017-05-05T08:52:20.619Z,100784
2017-05-05T08:54:50.628Z,100786
2017-05-05T08:57:19.891Z,100782
2017-05-05T08:59:49.981Z,100779
2017-05-05T09:02:20.069Z,100787
2017-05-05T09:04:49.388Z,100785
2017-05-05T09:07:18.830Z,100782
2017-05-05T09:09:48.181Z,100793
2017-05-05T09:12:17.467Z,100788
2017-05-05T09:14:47.604Z,100785
2017-05-05T09:17:17.840Z,100783
2017-05-05T09:19:47.860Z,100782
2017-05-05T09:22:18.889Z,100786
2017-05-05T09:24:48.944Z,100787
2017-05-05T09:27:18.979Z,100780
2017-05-05T09:29:48.269Z,100776
2017-05-05T09:32:17.523Z,100784
2017-05-05T09:34:46.849Z,100772
2017-05-05T09:37:16.097Z,100779
2017-05-05T09:39:46.115Z,100782
2017-05-05T09:42:15.330Z,100774
2017-05-05T09:44:44.671Z,100777
2017-05-05T09:47:14.745Z,100774
2017-05-05T09:49:44.013Z,100768
2017-05-05T09:52:13.956Z,100772
2017-05-05T09:54:43.362Z,100771
2017-05-05T09:57:13.524Z,100769
2017-05-05T09:59:43.542Z,100773
2017-05-05T10:02:12.888Z,100769
2017-05-05T10:04:42.215Z,100770
2017-05-05T10:07:12.438Z,100772
2017-05-05T10:09:42.629Z,100766
2017-05-05T10:12:12.808Z,100769
2017-05-05T10:14:42.276Z,100774
2017-05-05T10:17:12.722Z,100776
2017-05-05T10:19:41.998Z,100774
2017-05-05T10:22:12.070Z,100774
2017-05-05T10:24:41.311Z,100771
2017-05-05T10:27:12.172Z,100769
2017-05-05T10:29:41.423Z,100777
2017-05-05T10:32:10.703Z,100776
2017-05-05T10:34:40.059Z,100780
2017-05-05T10:37:10.159Z,100775
2017-05-05T10:39:40.294Z,100765
2017-05-05T10:42:10.278Z,100771
2017-05-05T10:44:39.583Z,100783
2017-05-05T10:47:08.826Z,100773
2017-05-05T10:49:38.133Z,100774
2017-05-05T10:52:07.629Z,100772
2017-05-05T10:54:37.809Z,100774
2017-05-05T10:57:07.038Z,100779
2017-05-05T10:59:36.339Z,100769
2017-05-05T11:02:05.581Z,100772
2017-05-05T11:04:34.954Z,100771
2017-05-05T11:07:04.200Z,100766
2017-05-05T11:09:34.332Z,100771
2017-05-05T11:12:04.393Z,100772
2017-05-05T11:14:33.767Z,100779
2017-05-05T11:17:03.855Z,100774
2017-05-05T11:19:33.983Z,100771
2017-05-05T11:22:03.970Z,100783
2017-05-05T11:24:33.769Z,100771
2017-05-05T11:27:03.095Z,100777
2017-05-05T11:29:32.367Z,100773
2017-05-05T11:32:01.638Z,100779
2017-05-05T11:34:30.887Z,100767
2017-05-05T11:37:00.172Z,100772
2017-05-05T11:39:29.505Z,100775
2017-05-05T11:41:59.618Z,100770
2017-05-05T11:44:29.566Z,100774
2017-05-05T11:46:58.971Z,100767
2017-05-05T11:49:29.011Z,100764
2017-05-05T11:51:58.403Z,100772
2017-05-05T11:54:27.696Z,100767
2017-05-05T11:56:57.113Z,100775
2017-05-05T11:59:26.375Z,100773
2017-05-05T12:01:56.483Z,100775
2017-05-05T12:04:26.623Z,100774
2017-05-05T12:06:55.866Z,100779
2017-05-05T12:09:25.309Z,100778
2017-05-05T12:11:54.632Z,100770
2017-05-05T12:14:23.981Z,100777
2017-05-05T12:16:53.263Z,100778
2017-05-05T12:19:22.671Z,100768
2017-05-05T12:21:52.627Z,100778
2017-05-05T12:24:22.634Z,100772
2017-05-05T12:26:51.871Z,100773
2017-05-05T12:29:21.098Z,100762
2017-05-05T12:31:51.128Z,100760
2017-05-05T12:34:20.364Z,100764
2017-05-05T12:36:49.657Z,100757
2017-05-05T12:39:19.673Z,100759
2017-05-05T12:41:49.859Z,100755
2017-05-05T12:44:19.179Z,100761
2017-05-05T12:46:49.198Z,100759
2017-05-05T12:49:19.206Z,100753
2017-05-05T12:51:49.260Z,100756
2017-05-05T12:54:18.514Z,100756
2017-05-05T12:56:48.589Z,100758
2017-05-05T12:59:17.853Z,100750
2017-05-05T13:01:48.639Z,100754
2017-05-05T13:04:18.663Z,100750
2017-05-05T13:06:47.828Z,100754
2017-05-05T13:09:17.816Z,100747
2017-05-05T13:11:47.159Z,100750
2017-05-05T13:14:16.470Z,100750
2017-05-05T13:16:45.755Z,100744
2017-05-05T13:19:15.003Z,100748
2017-05-05T13:21:46.445Z,100747
2017-05-05T13:24:16.500Z,100732
2017-05-05T13:26:45.741Z,100740
2017-05-05T13:29:15.034Z,100740
2017-05-05T13:31:44.278Z,100734
2017-05-05T13:34:13.551Z,100735
2017-05-05T13:36:43.576Z,100727
2017-05-05T13:39:13.600Z,100727
2017-05-05T13:41:44.272Z,100722
2017-05-05T13:44:15.021Z,100721
2017-05-05T13:46:45.776Z,100719
2017-05-05T13:49:15.929Z,100712
2017-05-05T13:51:45.282Z,100713
2017-05-05T13:54:14.652Z,100714
2017-05-05T13:56:44.091Z,100706
2017-05-05T13:59:13.626Z,100703
2017-05-05T14:01:43.631Z,100708
2017-05-05T14:04:13.642Z,100706
2017-05-05T14:06:43.868Z,100707
2017-05-05T14:09:13.869Z,100705
2017-05-05T14:11:43.792Z,100704
2017-05-05T14:14:13.811Z,100704
2017-05-05T14:16:43.836Z,100697
2017-05-05T14:19:13.861Z,100697
2017-05-05T14:21:43.108Z,100687
2017-05-05T14:24:12.438Z,100697
2017-05-05T14:26:42.486Z,100697
2017-05-05T14:29:11.877Z,100688
2017-05-05T14:31:41.931Z,100689
2017-05-05T14:34:11.245Z,100681
2017-05-05T14:36:40.463Z,100690
2017-05-05T14:39:10.502Z,100679
2017-05-05T14:41:40.503Z,100676
2017-05-05T14:44:10.583Z,100682
2017-05-05T14:46:39.837Z,100678
2017-05-05T14:49:09.077Z,100668
2017-05-05T14:51:39.160Z,100669
2017-05-05T14:54:08.414Z,100662
2017-05-05T14:56:39.094Z,100659
2017-05-05T14:59:08.329Z,100655
2017-05-05T15:01:37.585Z,100653
2017-05-05T15:04:06.889Z,100647
2017-05-05T15:06:36.158Z,100651
2017-05-05T15:09:06.150Z,100643
2017-05-05T15:11:35.427Z,100648
2017-05-05T15:14:04.857Z,100643
2017-05-05T15:16:35.087Z,100646
2017-05-05T15:19:05.132Z,100646
2017-05-05T15:21:34.354Z,100649
2017-05-05T15:24:04.394Z,100644
2017-05-05T15:26:35.152Z,100641
2017-05-05T15:29:05.258Z,100645
2017-05-05T15:31:34.509Z,100649
2017-05-05T15:34:04.865Z,100645
2017-05-05T15:36:34.915Z,100635
2017-05-05T15:39:04.706Z,100635
2017-05-05T15:41:33.924Z,100637
2017-05-05T15:44:04.225Z,100635
2017-05-05T15:46:33.582Z,100633
2017-05-05T15:49:03.061Z,100639
2017-05-05T15:51:32.298Z,100639
2017-05-05T15:54:01.563Z,100645
2017-05-05T15:56:30.785Z,100645
2017-05-05T15:59:00.840Z,100648
2017-05-05T16:01:30.610Z,100649
2017-05-05T16:04:00.674Z,100644
2017-05-05T16:06:29.904Z,100646
2017-05-05T16:08:59.442Z,100647
2017-05-05T16:11:28.709Z,100651
2017-05-05T16:13:59.383Z,100646
2017-05-05T16:16:28.781Z,100639
2017-05-05T16:18:58.019Z,100646
2017-05-05T16:21:28.056Z,100643
2017-05-05T16:23:58.105Z,100639
2017-05-05T16:26:28.167Z,100638
2017-05-05T16:28:58.141Z,100639
2017-05-05T16:31:28.225Z,100632
2017-05-05T16:33:57.468Z,100629
2017-05-05T16:36:26.735Z,100630
2017-05-05T16:38:56.374Z,100629
2017-05-05T16:41:25.606Z,100627
2017-05-05T16:43:55.624Z,100627
2017-05-05T16:46:25.655Z,100625
2017-05-05T16:48:54.976Z,100616
2017-05-05T16:51:24.248Z,100618
2017-05-05T16:53:54.271Z,100620
2017-05-05T16:56:24.223Z,100625
2017-05-05T16:58:54.241Z,100626
2017-05-05T17:01:24.415Z,100620
2017-05-05T17:03:53.794Z,100618
2017-05-05T17:06:23.849Z,100625
2017-05-05T17:08:53.862Z,100612
2017-05-05T17:11:23.126Z,100610
2017-05-05T17:13:52.380Z,100615
2017-05-05T17:16:21.694Z,100607
2017-05-05T17:18:50.943Z,100608
2017-05-05T17:21:20.183Z,100604
2017-05-05T17:23:49.456Z,100603
2017-05-05T17:26:18.911Z,100595
2017-05-05T17:28:48.179Z,100603
2017-05-05T17:31:17.550Z,100605
2017-05-05T17:33:46.865Z,100598
2017-05-05T17:36:17.803Z,100601
2017-05-05T17:38:47.848Z,100601
2017-05-05T17:41:17.832Z,100601
2017-05-05T17:43:47.158Z,100598
2017-05-05T17:46:16.398Z,100599
2017-05-05T17:48:46.423Z,100596
2017-05-05T17:51:16.579Z,100590
2017-05-05T17:53:46.640Z,100598
2017-05-05T17:56:15.902Z,100578
2017-05-05T17:58:45.374Z,100593
2017-05-05T18:01:14.610Z,100593
2017-05-05T18:03:43.939Z,100595
2017-05-05T18:06:13.941Z,100601
2017-05-05T18:08:44.132Z,100594
2017-05-05T18:11:14.329Z,100581
2017-05-05T18:13:44.397Z,100582
2017-05-05T18:16:15.526Z,100581
2017-05-05T18:18:44.811Z,100577
2017-05-05T18:21:14.039Z,100568
2017-05-05T18:23:43.321Z,100571
2017-05-05T18:26:12.581Z,100570
2017-05-05T18:28:41.969Z,100577
2017-05-05T18:31:11.969Z,100565
2017-05-05T18:33:41.981Z,100570
2017-05-05T18:36:11.233Z,100562
2017-05-05T18:38:40.274Z,100568
2017-05-05T18:41:10.298Z,100566
2017-05-05T18:43:40.288Z,100573
2017-05-05T18:46:09.712Z,100564
2017-05-05T18:48:39.100Z,100569
2017-05-05T18:51:08.359Z,100566
2017-05-05T18:53:37.638Z,100567
2017-05-05T18:56:08.395Z,100566
2017-05-05T18:58:37.755Z,100562
2017-05-05T19:01:07.762Z,100574
2017-05-05T19:03:37.048Z,100567
2017-05-05T19:06:07.170Z,100565
2017-05-05T19:08:37.204Z,100569
2017-05-05T19:11:06.465Z,100572
2017-05-05T19:13:36.459Z,100570
2017-05-05T19:16:05.720Z,100575
2017-05-05T19:18:34.989Z,100579
2017-05-05T19:21:04.291Z,100580
2017-05-05T19:23:33.663Z,100587
2017-05-05T19:26:03.878Z,100589
2017-05-05T19:28:33.811Z,100578
2017-05-05T19:31:03.169Z,100590
2017-05-05T19:33:32.382Z,100588
2017-05-05T19:36:02.370Z,100591
2017-05-05T19:38:31.668Z,100599
2017-05-05T19:41:02.314Z,100588
2017-05-05T19:43:31.729Z,100592
2017-05-05T19:46:01.751Z,100597
2017-05-05T19:48:31.104Z,100590
2017-05-05T19:51:01.066Z,100602
2017-05-05T19:53:30.421Z,100594
2017-05-05T19:55:59.706Z,100603
2017-05-05T19:58:28.978Z,100601
2017-05-05T20:00:58.217Z,100594
2017-05-05T20:03:28.481Z,100590
2017-05-05T20:05:57.785Z,100591
2017-05-05T20:08:27.089Z,100587
2017-05-05T20:10:56.492Z,100589
2017-05-05T20:13:25.760Z,100591
2017-05-05T20:15:55.928Z,100589
2017-05-05T20:18:26.713Z,100582
2017-05-05T20:20:56.113Z,100588
2017-05-05T20:23:25.386Z,100591
2017-05-05T20:25:57.418Z,100581
2017-05-05T20:28:26.850Z,100579
2017-05-05T20:30:57.008Z,100581
2017-05-05T20:33:27.095Z,100590
2017-05-05T20:35:57.135Z,100590
2017-05-05T20:38:27.123Z,100592
2017-05-05T20:40:57.092Z,100587
2017-05-05T20:43:26.382Z,100578
2017-05-05T20:45:56.424Z,100575
2017-05-05T20:48:25.694Z,100578
2017-05-05T20:50:54.981Z,100577
2017-05-05T20:53:25.864Z,100575
2017-05-05T20:55:56.058Z,100575
2017-05-05T20:58:26.121Z,100578
2017-05-05T21:00:56.162Z,100572
2017-05-05T21:03:26.191Z,100575
2017-05-05T21:05:55.500Z,100569
2017-05-05T21:08:24.755Z,100573
2017-05-05T21:10:55.268Z,100581
2017-05-05T21:13:24.585Z,100572
2017-05-05T21:15:55.262Z,100566
2017-05-05T21:18:25.159Z,100559
2017-05-05T21:20:54.435Z,100565
2017-05-05T21:23:24.473Z,100563
2017-05-05T21:25:53.780Z,100561
2017-05-05T21:28:24.707Z,100557
2017-05-05T21:30:53.980Z,100558
2017-05-05T21:33:24.052Z,100543
2017-05-05T21:35:53.995Z,100548
2017-05-05T21:38:23.245Z,100537
2017-05-05T21:40:53.362Z,100541
2017-05-05T21:43:23.542Z,100533
2017-05-05T21:45:53.684Z,100531
2017-05-05T21:48:23.795Z,100528
2017-05-05T21:50:53.961Z,100532
2017-05-05T21:53:23.416Z,100537
2017-05-05T21:55:52.697Z,100518
2017-05-05T21:58:23.006Z,100523
2017-05-05T22:00:53.724Z,100513
2017-05-05T22:03:24.487Z,100515
2017-05-05T22:05:54.474Z,100510
2017-05-05T22:08:25.172Z,100510
2017-05-05T22:10:55.328Z,100510
2017-05-05T22:13:24.643Z,100504
2017-05-05T22:15:54.569Z,100506
2017-05-05T22:18:23.815Z,100499
2017-05-05T22:20:54.537Z,100499
2017-05-05T22:23:23.957Z,100503
2017-05-05T22:25:55.254Z,100505
2017-05-05T22:28:24.513Z,100489
2017-05-05T22:30:53.791Z,100483
2017-05-05T22:33:23.006Z,100492
2017-05-05T22:35:52.297Z,100493
2017-05-05T22:38:21.571Z,100492
2017-05-05T22:40:50.898Z,100489
2017-05-05T22:43:20.224Z,100497
2017-05-05T22:45:49.479Z,100496
2017-05-05T22:48:18.707Z,100498
2017-05-05T22:50:49.049Z,100489
2017-05-05T22:53:19.053Z,100491
2017-05-05T22:55:49.167Z,100485
2017-05-05T22:58:18.380Z,100494
2017-05-05T23:00:48.543Z,100481
2017-05-05T23:03:17.802Z,100482
2017-05-05T23:05:47.842Z,100476
2017-05-05T23:08:17.155Z,100475
2017-05-05T23:10:46.413Z,100473
2017-05-05T23:13:15.660Z,100465
2017-05-05T23:15:44.949Z,100461
2017-05-05T23:18:14.155Z,100462
2017-05-05T23:20:44.178Z,100468
2017-05-05T23:23:14.196Z,100468
2017-05-05T23:25:44.281Z,100464
2017-05-05T23:28:13.575Z,100456
2017-05-05T23:30:42.853Z,100456
2017-05-05T23:33:12.100Z,100458
2017-05-05T23:35:41.645Z,100448
2017-05-05T23:38:11.054Z,100450
2017-05-05T23:40:41.834Z,100445
2017-05-05T23:43:11.153Z,100431
2017-05-05T23:45:40.522Z,100427
2017-05-05T23:48:09.874Z,100421
2017-05-05T23:50:39.171Z,100419
2017-05-05T23:53:08.398Z,100416
2017-05-05T23:55:38.501Z,100420
2017-05-05T23:58:07.750Z,100409
